Estherville, IA

5:14 AM CDT on April 26, 2017 (GMT -0500)
Estherville Municipal | | Change Station

Elev 1316 ft 43.41 °N, 94.75 °W | Updated 22 minutes ago

Overcast
Overcast
39 °F
Feels Like 28 °F
N
26
Wind Variable Wind from NNW
Gusts 31 mph

Today
High -- | Low -- °F
--% Chance of Precip.
Yesterday
High -- | Low -- °F
Precip. -- in
Pressure 29.51 in
Visibility 3.0 miles
Clouds Overcast 600 ft
Windchill 28 °F
Dew Point 39 °F
Humidity 100%
Rainfall 0.07 in
Snow Depth Not available.
6:19 AM 8:15 PM
Waning Crescent, 0% visible
METAR KEST 260952Z AUTO 33023G27KT 3SM -RA BR OVC006 04/04 A2949 RMK AO2 PK WND 33027/0932 RAB16 SLP992 P0000 T00390039
Pressure 29.51 in
Visibility 3.0 miles
Clouds Overcast 600 ft
Windchill 28 °F
Dew Point 39 °F
Humidity 100%
Rainfall 0.07 in
Snow Depth Not available.
6:19 AM 8:15 PM
Waning Crescent, 0% visible
METAR KEST 260952Z AUTO 33023G27KT 3SM -RA BR OVC006 04/04 A2949 RMK AO2 PK WND 33027/0932 RAB16 SLP992 P0000 T00390039

Get Severe Weather Alerts

Thanks for signing up!

Be on the lookout for a verification email in your inbox.

You'll start receiving the daily forecast at 8 AM.

×

10-Day Weather Forecast

Almanac

Astronomy

Apr. 26, 2017 Rise Set
Actual Time
Civil Twilight
Nautical Twilight
Astronomical Twilight
Moon
Length of Visible Light
Length of Day
Tomorrow will be .
, % of the Moon is Illuminated

Today's Extremes

State Highs State Lows

Community

WunderPhotos

WunderBlog® & News

Nearby

Air Quality

  Air Quality AQ Index Pollutant
Not available.

Snow Depth

Station Depth Elevation

Earthquake Activity

City Distance Mag. Time & Date
Minimum magnitude displayed is 2.5.

Coastal Water Temperatures

Place Temperature

Stations

Nearby Weather Stations

Station Location Temp. Windchill Dew Point Humidity Wind Precip. Elev Updated Type
                   

Watches & Warnings

There are currently no watches in effect.